Time;durP1;ratioP1;P1;durP2;ratioP2;P2;SDS_P1;SDS_P2;PMS_P1;PMS_P2;Temp;Humidity;BMP_temperature;BMP_pressure;BME280_temperature;BME280_humidity;BME280_pressure;Samples;Min_cycle;Max_cycle;Signal;HPM_P1;HPM_P2
2022/11/15 00:01:18;;;;;;;7.17;4.15;;;;;;;5.15;77.23;101301.95;1673025;86;21033;-59
2022/11/15 00:04:06;;;;;;;6.67;4.30;;;;;;;5.18;77.27;101292.66;1673304;86;21489;-58
2022/11/15 00:06:53;;;;;;;7.92;4.70;;;;;;;5.18;77.22;101292.16;1673210;85;21073;-59
2022/11/15 00:09:42;;;;;;;8.38;4.85;;;;;;;5.21;77.26;101291.05;1670653;85;21123;-57
2022/11/15 00:12:33;;;;;;;7.85;4.25;;;;;;;5.22;77.05;101287.33;1663912;86;21102;-58
2022/11/15 00:15:21;;;;;;;9.53;4.65;;;;;;;5.21;76.92;101284.27;1664008;85;21104;-57
2022/11/15 00:18:15;;;;;;;8.33;5.12;;;;;;;5.22;77.02;101278.69;1660980;86;21505;-59
2022/11/15 00:21:11;;;;;;;8.55;4.50;;;;;;;5.21;77.14;101273.39;1663991;86;21069;-58
2022/11/15 00:23:59;;;;;;;9.43;4.65;;;;;;;5.20;77.17;101264.38;1663986;85;21045;-58
2022/11/15 00:26:46;;;;;;;11.83;5.25;;;;;;;5.14;77.29;101258.13;1664446;86;21053;-57
2022/11/15 00:29:37;;;;;;;10.30;5.03;;;;;;;5.10;77.55;101258.05;1664018;85;21033;-59
2022/11/15 00:32:26;;;;;;;9.25;5.50;;;;;;;5.09;77.85;101253.62;1588002;90;21495;-59
2022/11/15 00:35:14;;;;;;;9.45;5.22;;;;;;;5.08;78.10;101249.19;1587588;90;21046;-58
2022/11/15 00:38:02;;;;;;;12.23;6.53;;;;;;;5.03;77.83;101240.10;1587731;90;21192;-58
2022/11/15 00:40:50;;;;;;;13.05;6.60;;;;;;;5.04;78.00;101242.32;1587719;90;21102;-57
2022/11/15 00:43:39;;;;;;;11.40;6.95;;;;;;;5.04;78.35;101240.46;1587629;90;21563;-57
2022/11/15 00:46:28;;;;;;;12.00;6.67;;;;;;;5.03;78.73;101240.60;1587637;89;21612;-58
2022/11/15 00:49:15;;;;;;;14.20;7.20;;;;;;;5.02;78.98;101227.52;1588116;90;21102;-58
2022/11/15 00:52:04;;;;;;;11.95;6.97;;;;;;;5.03;79.18;101221.09;1664270;86;21117;-57
2022/11/15 00:54:52;;;;;;;12.33;7.30;;;;;;;5.03;79.46;101220.23;1664102;86;21068;-58
2022/11/15 00:57:41;;;;;;;12.93;7.37;;;;;;;5.00;79.73;101219.16;1663994;86;21081;-57
2022/11/15 01:00:29;;;;;;;13.83;6.83;;;;;;;5.00;79.92;101225.95;1663917;86;21168;-59
2022/11/15 01:03:17;;;;;;;12.37;6.00;;;;;;;4.99;79.97;101225.09;1664007;86;21136;-57
2022/11/15 01:06:05;;;;;;;12.90;6.37;;;;;;;5.00;80.04;101221.88;1664277;86;21041;-56
2022/11/15 01:08:53;;;;;;;10.23;5.17;;;;;;;5.02;80.00;101223.95;1664143;86;21001;-58
2022/11/15 01:11:41;;;;;;;8.90;5.00;;;;;;;5.01;79.77;101217.66;1660672;86;21159;-57
2022/11/15 01:14:29;;;;;;;12.50;5.87;;;;;;;5.00;79.57;101224.59;1693876;84;21048;-58
2022/11/15 01:17:16;;;;;;;11.03;6.25;;;;;;;5.00;79.49;101213.23;1658058;86;21076;-60
2022/11/15 01:20:07;;;;;;;9.30;5.70;;;;;;;4.99;79.41;101208.80;1693729;84;21067;-58
2022/11/15 01:22:56;;;;;;;9.08;5.25;;;;;;;4.98;79.38;101198.94;1657847;85;21522;-58
2022/11/15 01:25:44;;;;;;;8.50;4.92;;;;;;;4.99;79.42;101197.94;1693826;84;21016;-57
2022/11/15 01:28:34;;;;;;;8.03;4.37;;;;;;;5.01;79.36;101194.58;1658191;86;21073;-57
2022/11/15 01:31:21;;;;;;;10.80;5.03;;;;;;;5.02;79.21;101196.79;1645347;86;21037;-58
2022/11/15 01:34:09;;;;;;;10.08;5.17;;;;;;;5.04;79.16;101190.21;1694022;84;21055;-58
2022/11/15 01:36:58;;;;;;;11.48;5.35;;;;;;;5.07;79.06;101189.07;1639194;87;21027;-57
2022/11/15 01:39:48;;;;;;;8.53;4.90;;;;;;;5.08;78.99;101188.06;1639164;87;21125;-58
2022/11/15 01:42:37;;;;;;;8.90;4.90;;;;;;;5.05;78.85;101181.06;1639297;87;21048;-58
2022/11/15 01:45:26;;;;;;;6.62;4.35;;;;;;;5.06;78.80;101177.84;1639467;87;21071;-57
2022/11/15 01:48:13;;;;;;;7.83;3.72;;;;;;;5.04;78.79;101175.78;1639689;87;21083;-58
2022/11/15 01:51:03;;;;;;;10.35;4.87;;;;;;;5.03;78.86;101169.48;1639600;87;21059;-57
2022/11/15 01:53:55;;;;;;;9.85;5.00;;;;;;;5.03;78.92;101169.98;1639246;87;21475;-59
2022/11/15 01:56:50;;;;;;;8.28;5.05;;;;;;;5.05;78.99;101163.41;1639437;87;21071;-60
2022/11/15 01:59:43;;;;;;;8.80;5.85;;;;;;;5.07;78.94;101165.98;1639318;87;21067;-58
2022/11/15 02:02:30;;;;;;;10.82;5.40;;;;;;;5.07;78.95;101160.55;1655258;86;21072;-59
2022/11/15 02:05:18;;;;;;;9.35;5.30;;;;;;;5.08;78.99;101148.69;1693640;85;21131;-57
2022/11/15 02:08:06;;;;;;;8.25;4.92;;;;;;;5.12;78.97;101147.89;1657883;86;21077;-58
2022/11/15 02:10:54;;;;;;;9.23;5.03;;;;;;;5.08;79.02;101148.69;1693843;83;21103;-57
2022/11/15 02:13:42;;;;;;;9.43;5.20;;;;;;;5.07;79.07;101148.33;1658014;86;21147;-57
2022/11/15 02:16:55;;;;;;;8.80;4.75;;;;;;;5.02;79.08;101145.19;1693582;84;21475;-56
2022/11/15 02:19:58;;;;;;;8.88;4.70;;;;;;;4.97;79.37;101141.55;1693708;84;21059;-58
2022/11/15 02:23:43;;;;;;;9.13;4.50;;;;;;;4.95;79.46;101143.55;1634581;87;21560;-58
2022/11/15 02:26:52;;;;;;;8.68;4.78;;;;;;;4.97;79.52;101140.69;1634574;88;21085;-58
2022/11/15 02:30:24;;;;;;;8.13;5.05;;;;;;;4.95;79.57;101132.68;1634517;88;21036;-57
2022/11/15 02:33:36;;;;;;;8.68;4.53;;;;;;;4.95;79.62;101129.11;1634483;87;21098;-57
2022/11/15 02:37:14;;;;;;;10.25;5.20;;;;;;;4.94;79.64;101129.61;1634808;87;21130;-57
2022/11/15 02:40:22;;;;;;;9.23;5.00;;;;;;;4.92;79.66;101125.33;1627020;85;21674;-57
2022/11/15 02:49:52;;;;;;;10.28;5.10;;;;;;;4.99;79.84;101123.75;1657877;85;21032;-57
2022/11/15 02:52:48;;;;;;;8.88;5.05;;;;;;;4.97;79.87;101125.75;1600376;89;21528;-58
2022/11/15 02:55:41;;;;;;;10.45;5.83;;;;;;;4.88;79.97;101121.18;1612059;89;21052;-58
2022/11/15 02:58:49;;;;;;;10.10;5.58;;;;;;;4.85;80.22;101112.82;1611630;89;21652;-57
2022/11/15 03:02:10;;;;;;;11.78;5.20;;;;;;;4.86;80.31;101113.68;1611730;89;21107;-58
2022/11/15 03:05:35;;;;;;;10.68;5.30;;;;;;;4.84;80.53;101114.32;1618403;88;21550;-59
2022/11/15 03:08:57;;;;;;;8.05;4.83;;;;;;;4.87;80.59;101111.32;1634423;87;21066;-58
2022/11/15 03:11:49;;;;;;;8.58;5.05;;;;;;;4.85;80.62;101114.18;1685583;84;21066;-58
2022/11/15 03:14:49;;;;;;;10.48;5.30;;;;;;;4.82;80.75;101107.67;1663954;86;21085;-58
2022/11/15 03:17:48;;;;;;;10.40;5.92;;;;;;;4.83;80.73;101099.03;1663900;86;21076;-58
2022/11/15 03:20:36;;;;;;;8.80;5.05;;;;;;;4.80;80.72;101093.89;1663777;86;21026;-59
2022/11/15 03:23:24;;;;;;;9.88;5.75;;;;;;;4.75;80.70;101088.39;1664115;85;21045;-60
2022/11/15 03:26:13;;;;;;;11.93;5.42;;;;;;;4.70;80.78;101082.53;1664084;85;21033;-58
2022/11/15 03:29:17;;;;;;;9.40;5.37;;;;;;;4.70;80.98;101089.32;1647992;86;21148;-59
2022/11/15 03:32:18;;;;;;;12.73;5.45;;;;;;;4.70;81.02;101082.53;1655823;86;21049;-58
2022/11/15 03:35:09;;;;;;;12.10;5.17;;;;;;;4.68;81.01;101072.82;1663911;86;21056;-59
2022/11/15 03:38:21;;;;;;;9.23;5.00;;;;;;;4.69;81.04;101074.03;1609392;89;21456;-58
2022/11/15 03:41:19;;;;;;;9.65;5.42;;;;;;;4.69;81.02;101067.75;1640968;87;21061;-58
2022/11/15 03:44:18;;;;;;;8.45;5.12;;;;;;;4.70;81.06;101062.67;1609728;89;21080;-58
2022/11/15 03:47:21;;;;;;;9.63;5.40;;;;;;;4.68;81.09;101068.25;1640923;86;21050;-58
2022/11/15 03:50:16;;;;;;;10.40;5.22;;;;;;;4.67;81.07;101052.11;1609599;89;21085;-58
2022/11/15 03:53:03;;;;;;;11.90;5.53;;;;;;;4.64;81.11;101050.53;1627530;87;21129;-58
2022/11/15 03:55:51;;;;;;;10.78;5.70;;;;;;;4.67;81.14;101052.97;1629732;86;21101;-58
2022/11/15 03:58:39;;;;;;;8.68;5.90;;;;;;;4.66;81.14;101058.03;1663888;86;21021;-59
2022/11/15 04:01:27;;;;;;;13.18;6.28;;;;;;;4.64;81.03;101046.47;1664138;86;21056;-59
2022/11/15 04:04:15;;;;;;;13.08;6.40;;;;;;;4.62;80.92;101049.83;1644438;86;21058;-59
2022/11/15 04:07:02;;;;;;;13.93;7.47;;;;;;;4.60;80.92;101039.61;1664192;86;21469;-58
2022/11/15 04:10:02;;;;;;;15.13;7.78;;;;;;;4.61;80.76;101044.54;1664191;86;21077;-58
2022/11/15 04:12:49;;;;;;;13.65;7.35;;;;;;;4.60;80.58;101032.83;1663756;86;21094;-58
2022/11/15 04:15:36;;;;;;;15.63;8.07;;;;;;;4.60;80.47;101031.47;1663978;85;21005;-58
2022/11/15 04:18:24;;;;;;;10.93;6.08;;;;;;;4.60;80.47;101027.39;1664271;86;21041;-58
2022/11/15 04:24:21;;;;;;;15.18;7.92;;;;;;;4.62;80.63;101024.04;1664068;85;21093;-62
2022/11/15 04:27:08;;;;;;;13.55;7.55;;;;;;;4.64;80.58;101021.18;1663909;86;21073;-58
2022/11/15 04:29:57;;;;;;;17.42;8.45;;;;;;;4.64;80.41;101024.75;1664257;86;21073;-57
2022/11/15 04:32:44;;;;;;;16.45;8.73;;;;;;;4.63;80.29;101018.97;1629838;86;21033;-58
2022/11/15 04:35:33;;;;;;;19.75;9.83;;;;;;;4.61;80.25;101019.61;1663936;86;21036;-57
2022/11/15 04:38:20;;;;;;;15.45;8.73;;;;;;;4.60;80.33;101015.19;1664275;85;21094;-59
2022/11/15 04:41:07;;;;;;;16.42;8.55;;;;;;;4.62;80.35;101013.68;1664102;86;21092;-57
2022/11/15 04:43:55;;;;;;;17.05;8.38;;;;;;;4.61;80.42;101014.19;1664109;86;21096;-57
2022/11/15 04:46:42;;;;;;;13.62;6.83;;;;;;;4.61;80.49;101016.90;1664207;86;21176;-59
2022/11/15 04:49:30;;;;;;;18.15;8.78;;;;;;;4.62;80.38;101017.75;1663775;86;21543;-58
2022/11/15 04:52:17;;;;;;;16.12;8.60;;;;;;;4.63;80.39;101005.89;1664025;86;21045;-60
2022/11/15 04:55:07;;;;;;;20.72;9.58;;;;;;;4.64;80.33;101003.04;1664045;85;21085;-61
2022/11/15 04:58:02;;;;;;;17.67;9.35;;;;;;;4.65;80.40;100998.47;1663813;86;21468;-57
2022/11/15 05:00:50;;;;;;;16.73;9.38;;;;;;;4.66;80.29;101003.75;1664135;86;21116;-58
2022/11/15 05:06:43;;;;;;;16.23;8.68;;;;;;;4.66;80.34;100996.96;1683049;85;20465;-58
2022/11/15 05:09:30;;;;;;;17.67;9.35;;;;;;;4.63;80.31;100991.83;1664037;86;21677;-58
2022/11/15 05:12:17;;;;;;;17.60;9.10;;;;;;;4.61;80.47;100991.61;1664065;85;21140;-58
2022/11/15 05:15:07;;;;;;;19.42;9.20;;;;;;;4.60;80.60;100988.55;1664267;86;21119;-59
2022/11/15 05:18:00;;;;;;;23.18;9.88;;;;;;;4.61;80.80;100986.19;1663839;86;21054;-57
2022/11/15 05:20:47;;;;;;;20.57;9.28;;;;;;;4.62;80.82;100986.05;1664184;86;21052;-57
2022/11/15 05:23:34;;;;;;;17.05;9.18;;;;;;;4.64;80.75;100988.11;1663970;85;21096;-60
2022/11/15 05:26:21;;;;;;;19.37;8.98;;;;;;;4.68;80.70;100984.10;1664242;85;21033;-58
2022/11/15 05:29:11;;;;;;;20.92;10.03;;;;;;;4.73;80.57;100976.88;1664140;86;21519;-59
2022/11/15 05:31:59;;;;;;;22.13;10.38;;;;;;;4.72;80.31;100982.81;1663727;86;21033;-57
2022/11/15 05:34:47;;;;;;;22.75;10.68;;;;;;;4.71;80.09;100986.53;1664109;85;21081;-58
2022/11/15 05:37:36;;;;;;;;;;;;;;;4.67;79.90;100982.39;1666533;86;21034;-57
2022/11/15 05:40:24;;;;;;;24.63;10.43;;;;;;;4.68;79.82;100973.75;1664071;86;20513;-58
2022/11/15 05:43:12;;;;;;;21.82;10.35;;;;;;;4.68;79.75;100973.25;1663857;85;21049;-57
2022/11/15 05:45:59;;;;;;;21.68;10.70;;;;;;;4.69;79.63;100976.81;1664146;85;21082;-56
2022/11/15 05:48:49;;;;;;;25.30;12.40;;;;;;;4.67;79.58;100975.61;1663873;85;21041;-57
2022/11/15 05:51:36;;;;;;;26.55;11.50;;;;;;;4.68;79.53;100972.39;1663841;86;21057;-58
2022/11/15 05:54:24;;;;;;;30.20;12.60;;;;;;;4.66;79.54;100972.53;1663826;85;21505;-59
2022/11/15 05:57:13;;;;;;;24.25;10.72;;;;;;;4.67;79.63;100970.18;1663756;85;21040;-59
2022/11/15 06:00:00;;;;;;;22.32;10.68;;;;;;;4.68;79.52;100958.81;1663919;86;21064;-58
2022/11/15 06:02:48;;;;;;;19.60;9.18;;;;;;;4.66;79.49;100961.68;1664145;86;21433;-58
2022/11/15 06:05:37;;;;;;;23.45;11.63;;;;;;;4.67;79.56;100960.67;1663739;85;21045;-58
2022/11/15 06:08:25;;;;;;;31.73;14.90;;;;;;;4.67;79.61;100951.68;1664172;86;21051;-58
2022/11/15 06:11:13;;;;;;;24.45;11.18;;;;;;;4.67;79.63;100950.32;1663907;85;21461;-59
2022/11/15 06:14:01;;;;;;;32.97;14.53;;;;;;;4.68;79.74;100949.32;1668441;84;21078;-59
2022/11/15 06:16:49;;;;;;;40.55;18.87;;;;;;;4.68;79.83;100948.81;1669093;84;21021;-59
2022/11/15 06:19:36;;;;;;;;;;;;;;;4.69;79.97;100945.60;1671613;84;21061;-58
2022/11/15 06:22:26;;;;;;;23.27;10.95;;;;;;;4.72;80.08;100948.87;1668946;86;20192;-58
2022/11/15 06:25:14;;;;;;;29.25;12.20;;;;;;;4.74;80.07;100936.52;1669080;84;21041;-58
2022/11/15 06:28:04;;;;;;;26.80;11.38;;;;;;;4.74;79.89;100942.80;1668920;85;21065;-60
2022/11/15 06:30:52;;;;;;;26.48;12.35;;;;;;;4.74;79.83;100938.73;1668933;84;21072;-61
2022/11/15 06:33:41;;;;;;;23.70;11.00;;;;;;;4.75;79.84;100936.38;1668779;84;21047;-59
2022/11/15 06:36:28;;;;;;;23.67;11.20;;;;;;;4.80;79.74;100941.86;1668896;84;21020;-59
2022/11/15 06:39:16;;;;;;;22.37;10.15;;;;;;;4.80;79.44;100947.29;1668912;86;21346;-59
2022/11/15 06:42:05;;;;;;;18.52;9.25;;;;;;;4.78;79.26;100936.08;1669056;85;21064;-60
2022/11/15 06:44:53;;;;;;;19.32;9.03;;;;;;;4.79;79.06;100949.14;1702768;83;21505;-59
2022/11/15 06:47:47;;;;;;;19.07;8.33;;;;;;;4.73;78.93;100937.52;1702945;84;21188;-58
2022/11/15 06:50:36;;;;;;;18.65;8.85;;;;;;;4.70;79.02;100941.38;1702645;84;21434;-60
2022/11/15 06:53:24;;;;;;;17.10;9.03;;;;;;;4.72;79.20;100929.88;1702588;84;21132;-59
2022/11/15 06:56:12;;;;;;;21.80;8.38;;;;;;;4.76;79.21;100930.44;1702597;84;21022;-59
2022/11/15 06:59:00;;;;;;;16.95;8.48;;;;;;;4.75;79.20;100938.23;1702553;84;21093;-59
2022/11/15 07:01:49;;;;;;;17.15;8.40;;;;;;;4.71;79.25;100933.59;1702940;84;21081;-58
2022/11/15 07:04:38;;;;;;;14.38;7.20;;;;;;;4.70;79.34;100933.74;1680306;84;21527;-59
2022/11/15 07:07:26;;;;;;;15.90;7.87;;;;;;;4.70;79.42;100930.52;1702974;84;21049;-60
2022/11/15 07:10:15;;;;;;;14.80;7.87;;;;;;;4.72;79.48;100931.23;1702732;84;21034;-62
2022/11/15 07:13:04;;;;;;;16.62;8.23;;;;;;;4.75;79.64;100935.52;1703379;84;21947;-59
2022/11/15 07:15:52;;;;;;;14.30;7.92;;;;;;;4.77;79.69;100926.22;1705464;84;21047;-59
2022/11/15 07:18:40;;;;;;;14.40;7.62;;;;;;;4.79;79.61;100924.72;1705423;84;21024;-57
2022/11/15 07:21:28;;;;;;;15.28;7.47;;;;;;;4.81;79.59;100919.14;1705386;84;21039;-58
2022/11/15 07:24:16;;;;;;;18.42;7.30;;;;;;;4.83;79.51;100923.92;1705270;84;21513;-60
2022/11/15 07:27:05;;;;;;;16.65;7.87;;;;;;;4.86;79.42;100918.19;1705342;84;21533;-59
2022/11/15 07:29:53;;;;;;;17.73;9.08;;;;;;;4.85;79.52;100912.41;1705278;84;21016;-58
2022/11/15 07:32:42;;;;;;;14.95;7.80;;;;;;;4.88;79.57;100908.04;1705491;84;21058;-60
2022/11/15 07:35:32;;;;;;;17.77;8.88;;;;;;;4.89;79.53;100906.53;1705174;84;21039;-60
2022/11/15 07:38:19;;;;;;;17.45;7.80;;;;;;;4.91;79.37;100913.17;1705368;84;21054;-60
2022/11/15 07:41:08;;;;;;;15.90;7.22;;;;;;;4.91;79.23;100909.09;1705438;84;21027;-59
2022/11/15 07:43:55;;;;;;;14.80;7.53;;;;;;;4.92;79.19;100904.02;1705475;84;21043;-58
2022/11/15 07:46:44;;;;;;;15.55;7.50;;;;;;;4.94;79.15;100903.38;1705708;84;21068;-59
2022/11/15 07:49:33;;;;;;;19.73;8.70;;;;;;;4.96;78.89;100893.22;1705309;84;20995;-58
2022/11/15 07:52:21;;;;;;;16.50;7.33;;;;;;;4.91;78.46;100896.38;1705390;84;20990;-59
2022/11/15 07:55:09;;;;;;;18.70;8.48;;;;;;;4.90;78.26;100885.66;1705349;84;21067;-60
2022/11/15 07:58:09;;;;;;;13.10;6.42;;;;;;;4.89;78.27;100878.52;1705377;84;21472;-60
2022/11/15 08:00:56;;;;;;;20.75;9.83;;;;;;;4.89;78.13;100883.95;1705257;84;21007;-59
2022/11/15 08:03:44;;;;;;;18.45;10.00;;;;;;;4.90;78.14;100881.09;1705383;84;21561;-60
2022/11/15 08:06:33;;;;;;;19.42;10.88;;;;;;;4.88;78.00;100879.03;1705387;84;21007;-60
2022/11/15 08:09:23;;;;;;;22.20;11.03;;;;;;;4.86;77.91;100886.47;1705189;84;21444;-58
2022/11/15 08:12:10;;;;;;;23.40;11.85;;;;;;;4.81;77.58;100876.55;1705725;84;21055;-59
2022/11/15 08:14:58;;;;;;;20.80;11.70;;;;;;;4.76;77.62;100874.79;1705563;83;21007;-59
2022/11/15 08:17:46;;;;;;;23.05;12.13;;;;;;;4.73;77.17;100870.52;1705478;84;21039;-58
2022/11/15 08:20:34;;;;;;;27.90;11.68;;;;;;;4.70;77.19;100866.73;1705520;84;21027;-60
2022/11/15 08:23:22;;;;;;;20.30;11.88;;;;;;;4.73;77.11;100865.08;1683932;84;21016;-57
2022/11/15 08:26:11;;;;;;;18.90;10.30;;;;;;;4.77;76.63;100874.64;1705543;84;21039;-59
2022/11/15 08:29:00;;;;;;;23.10;11.33;;;;;;;4.72;75.99;100870.66;1705301;84;21087;-59
2022/11/15 08:31:48;;;;;;;25.23;12.25;;;;;;;4.68;75.97;100870.10;1705385;84;21091;-60
2022/11/15 08:34:38;;;;;;;21.82;11.85;;;;;;;4.68;76.09;100870.61;1705590;84;21043;-60
2022/11/15 08:37:25;;;;;;;20.68;11.15;;;;;;;4.69;76.22;100865.03;1700099;84;21079;-60
2022/11/15 08:40:13;;;;;;;20.05;10.70;;;;;;;4.70;76.00;100861.81;1705491;84;21162;-58
2022/11/15 08:43:02;;;;;;;21.40;11.90;;;;;;;4.68;75.96;100861.95;1705629;84;21035;-58
2022/11/15 08:45:50;;;;;;;23.73;11.30;;;;;;;4.68;76.11;100861.11;1705267;84;21090;-60
2022/11/15 08:48:37;;;;;;;26.00;13.18;;;;;;;4.71;76.11;100862.16;1705756;84;21003;-58
2022/11/15 08:51:24;;;;;;;19.77;9.88;;;;;;;4.71;75.91;100855.38;1724457;83;21097;-60
2022/11/15 08:54:12;;;;;;;23.60;12.23;;;;;;;4.69;75.77;100848.74;1694020;84;21140;-59
2022/11/15 08:57:02;;;;;;;22.32;11.75;;;;;;;4.67;75.78;100849.39;1685745;85;21036;-58
2022/11/15 08:59:50;;;;;;;20.97;11.78;;;;;;;4.67;75.77;100839.89;1670255;86;21038;-61
2022/11/15 09:02:39;;;;;;;23.05;12.28;;;;;;;4.65;76.00;100843.26;1670017;86;21070;-60
2022/11/15 09:05:26;;;;;;;23.52;12.18;;;;;;;4.68;75.97;100842.11;1670076;86;21082;-59
2022/11/15 09:08:14;;;;;;;21.45;11.78;;;;;;;4.67;76.08;100834.47;1669894;86;21467;-63
2022/11/15 09:11:09;;;;;;;19.80;11.83;;;;;;;4.68;76.22;100828.03;1669947;86;21066;-62
2022/11/15 09:13:57;;;;;;;22.20;10.58;;;;;;;4.70;75.96;100827.38;1669005;86;21017;-60
2022/11/15 09:16:45;;;;;;;19.15;11.18;;;;;;;4.68;75.53;100820.39;1667521;86;21033;-62
2022/11/15 09:19:34;;;;;;;22.52;11.65;;;;;;;4.66;75.32;100819.19;1667604;86;21069;-60
2022/11/15 09:22:22;;;;;;;23.77;12.30;;;;;;;4.66;75.49;100813.75;1667494;84;21025;-59
2022/11/15 09:25:09;;;;;;;17.37;10.00;;;;;;;4.65;75.44;100794.41;1679451;84;21142;-61
2022/11/15 09:27:57;;;;;;;22.32;11.40;;;;;;;4.75;76.23;100784.86;1669879;84;21050;-60
2022/11/15 09:30:45;;;;;;;26.17;13.13;;;;;;;4.82;75.84;100782.39;1657453;86;21020;-60
2022/11/15 09:33:33;;;;;;;23.67;11.12;;;;;;;4.83;76.21;100776.81;1693250;85;21130;-60
2022/11/15 09:36:23;;;;;;;18.60;10.48;;;;;;;4.89;75.81;100765.34;1661612;85;21073;-62
2022/11/15 09:39:10;;;;;;;21.68;10.28;;;;;;;4.90;76.13;100761.63;1661995;86;21054;-61
2022/11/15 09:42:25;;;;;;;23.55;11.68;;;;;;;4.90;75.68;100754.84;1684709;84;21578;-62
2022/11/15 09:45:28;;;;;;;26.42;11.12;;;;;;;4.84;75.53;100755.45;1687991;84;21461;-60
2022/11/15 09:48:39;;;;;;;25.95;11.57;;;;;;;4.86;75.58;100748.50;1694407;83;21158;-60
2022/11/15 09:51:46;;;;;;;23.83;11.22;;;;;;;4.87;75.66;100738.00;1682504;83;21069;-60
2022/11/15 09:54:28;;;;;;;22.00;11.97;;;;;;;4.92;75.72;100735.67;1702766;83;21042;-61
2022/11/15 09:57:14;;;;;;;20.48;11.20;;;;;;;4.93;75.64;100729.23;1681580;83;21045;-60
2022/11/15 10:00:16;;;;;;;20.82;11.03;;;;;;;4.92;75.79;100727.53;1715025;83;21079;-59
2022/11/15 10:03:12;;;;;;;22.05;11.63;;;;;;;4.93;75.76;100723.30;1699726;83;21432;-61
2022/11/15 10:05:49;;;;;;;20.05;10.30;;;;;;;4.95;75.88;100709.58;1727208;83;21064;-60
2022/11/15 10:08:34;;;;;;;17.57;9.43;;;;;;;4.98;75.80;100694.33;1726958;83;21480;-59
2022/11/15 10:11:21;;;;;;;21.10;10.78;;;;;;;5.01;75.75;100694.02;1726906;82;21023;-62
2022/11/15 10:13:54;;;;;;;19.37;11.33;;;;;;;5.01;75.83;100692.16;1722563;82;21080;-61
2022/11/15 10:16:47;;;;;;;17.77;9.53;;;;;;;5.05;75.94;100688.63;1726618;82;21032;-62
2022/11/15 10:19:34;;;;;;;19.35;10.90;;;;;;;5.09;75.73;100685.95;1727152;83;21447;-62
2022/11/15 10:22:16;;;;;;;22.62;10.82;;;;;;;5.09;76.44;100684.09;1726382;83;21475;-59
2022/11/15 10:24:46;;;;;;;19.02;9.85;;;;;;;5.14;76.32;100673.27;1683479;85;21022;-60
2022/11/15 10:27:18;;;;;;;14.03;8.80;;;;;;;5.18;76.07;100674.66;1663404;86;21071;-60
2022/11/15 10:29:49;;;;;;;20.43;9.85;;;;;;;5.19;76.06;100665.50;1697295;84;21101;-64
2022/11/15 10:32:20;;;;;;;22.87;10.90;;;;;;;5.23;76.16;100657.42;1689742;83;21007;-62
2022/11/15 10:34:51;;;;;;;22.05;11.22;;;;;;;5.22;75.88;100651.13;1727230;82;21063;-62
2022/11/15 10:37:31;;;;;;;19.15;10.40;;;;;;;5.23;75.95;100651.48;1727160;83;21011;-62
2022/11/15 10:40:14;;;;;;;19.30;11.12;;;;;;;5.25;75.94;100647.25;1727215;83;21064;-61
2022/11/15 10:42:46;;;;;;;18.32;10.53;;;;;;;5.26;75.82;100636.22;1727266;83;21134;-60
2022/11/15 10:45:26;;;;;;;18.65;10.50;;;;;;;5.27;75.85;100633.00;1720305;83;21020;-64
2022/11/15 10:48:16;;;;;;;17.95;9.78;;;;;;;5.27;75.82;100630.28;1705722;83;21015;-63
2022/11/15 10:50:47;;;;;;;21.10;11.22;;;;;;;5.28;75.88;100621.98;1708491;83;21051;-62
2022/11/15 10:53:40;;;;;;;20.45;11.08;;;;;;;5.31;75.88;100620.30;1713753;84;20999;-61
2022/11/15 10:56:13;;;;;;;21.80;10.15;;;;;;;5.30;75.87;100617.23;1674426;86;21089;-63
2022/11/15 10:58:43;;;;;;;21.93;10.80;;;;;;;5.33;76.32;100607.41;1656219;85;21529;-60
2022/11/15 11:01:22;;;;;;;22.13;12.45;;;;;;;5.33;76.16;100600.62;1690074;83;21399;-63
2022/11/15 11:04:10;;;;;;;20.40;10.35;;;;;;;5.32;76.23;100594.84;1698653;84;21025;-64
2022/11/15 11:07:00;;;;;;;21.23;11.43;;;;;;;5.34;76.50;100592.81;1627326;86;21013;-61
2022/11/15 11:09:42;;;;;;;22.85;12.37;;;;;;;5.33;76.45;100590.26;1634346;88;21038;-62
2022/11/15 11:12:14;;;;;;;27.00;12.28;;;;;;;5.35;76.59;100571.42;1641627;87;21566;-63
2022/11/15 11:14:44;;;;;;;21.48;11.25;;;;;;;5.39;76.57;100563.80;1610177;87;21043;-61
2022/11/15 11:17:46;;;;;;;24.40;11.85;;;;;;;5.42;76.56;100558.05;1641471;86;21498;-61
2022/11/15 11:20:34;;;;;;;24.67;12.60;;;;;;;5.40;76.44;100550.06;1624339;87;21494;-60
2022/11/15 11:23:24;;;;;;;22.27;11.57;;;;;;;5.38;76.52;100545.30;1624111;88;21166;-62
2022/11/15 11:26:32;;;;;;;21.20;10.80;;;;;;;5.39;76.66;100539.35;1597218;88;21070;-61
2022/11/15 11:29:23;;;;;;;24.35;12.05;;;;;;;5.43;76.75;100534.45;1578826;89;21555;-61
2022/11/15 11:32:04;;;;;;;24.05;13.38;;;;;;;5.46;76.79;100520.03;1572644;89;21318;-63
2022/11/15 11:35:00;;;;;;;24.80;12.65;;;;;;;5.47;77.00;100519.52;1625889;88;21451;-61
2022/11/15 11:37:44;;;;;;;26.62;13.80;;;;;;;5.52;77.03;100513.09;1609269;86;21139;-63
2022/11/15 11:40:52;;;;;;;22.98;11.85;;;;;;;5.57;76.95;100517.53;1633044;86;21094;-63
2022/11/15 11:44:20;;;;;;;21.80;11.75;;;;;;;5.61;76.82;100514.84;1664290;86;21491;-63
2022/11/15 11:46:56;;;;;;;28.17;12.65;;;;;;;5.62;76.69;100507.87;1664513;85;21033;-63
2022/11/15 11:49:40;;;;;;;24.93;12.83;;;;;;;5.63;76.71;100501.43;1665104;86;21551;-63
2022/11/15 11:52:41;;;;;;;22.65;12.18;;;;;;;5.66;76.70;100500.25;1671978;85;22249;-64
2022/11/15 11:55:23;;;;;;;22.98;12.10;;;;;;;5.69;76.65;100498.56;1672221;85;21060;-64
2022/11/15 11:58:20;;;;;;;24.43;12.35;;;;;;;5.69;76.56;100491.77;1668766;85;21046;-63
2022/11/15 12:01:10;;;;;;;22.30;11.57;;;;;;;5.68;76.72;100490.91;1673829;85;21101;-63
2022/11/15 12:03:51;;;;;;;22.67;12.07;;;;;;;5.71;76.71;100492.45;1673966;86;21034;-64
2022/11/15 12:06:40;;;;;;;26.00;12.60;;;;;;;5.74;76.77;100481.25;1674408;85;21056;-64
2022/11/15 12:09:45;;;;;;;24.75;13.58;;;;;;;5.77;76.69;100476.84;1648989;86;21107;-63
2022/11/15 12:12:34;;;;;;;27.42;14.55;;;;;;;5.75;76.62;100472.08;1657186;86;21061;-62
2022/11/15 12:15:14;;;;;;;25.10;12.73;;;;;;;5.75;76.72;100462.56;1666308;84;21069;-63
2022/11/15 12:17:45;;;;;;;21.95;12.55;;;;;;;5.76;76.69;100469.70;1665267;85;21069;-64
2022/11/15 12:20:19;;;;;;;23.67;11.80;;;;;;;5.79;76.76;100460.36;1664783;86;21081;-66
2022/11/15 12:22:59;;;;;;;22.50;12.73;;;;;;;5.81;76.70;100452.39;1665115;84;22047;-63
2022/11/15 12:25:54;;;;;;;22.58;12.82;;;;;;;5.82;76.67;100447.80;1664059;84;21050;-64
2022/11/15 12:28:35;;;;;;;22.82;12.40;;;;;;;5.81;76.75;100443.38;1655569;86;21053;-65
2022/11/15 12:31:33;;;;;;;27.75;12.70;;;;;;;5.87;77.91;100440.87;1635953;86;21074;-66
2022/11/15 12:34:29;;;;;;;22.40;12.40;;;;;;;5.91;77.47;100435.48;1621877;86;21583;-64
2022/11/15 12:36:58;;;;;;;25.68;13.03;;;;;;;5.93;77.21;100428.52;1664825;86;21065;-63
2022/11/15 12:40:24;;;;;;;23.55;12.20;;;;;;;5.96;76.99;100424.95;1665050;86;21009;-62
2022/11/15 12:43:01;;;;;;;25.10;12.47;;;;;;;5.95;76.82;100416.45;1665334;86;21133;-62
2022/11/15 12:45:39;;;;;;;23.90;12.53;;;;;;;5.97;76.74;100417.14;1665494;86;21505;-64
2022/11/15 12:48:38;;;;;;;24.75;13.38;;;;;;;5.98;76.95;100412.03;1665086;86;21031;-62
2022/11/15 12:51:11;;;;;;;22.25;12.43;;;;;;;6.02;76.92;100417.98;1665088;86;21049;-63
2022/11/15 12:53:40;;;;;;;27.52;12.75;;;;;;;6.06;76.83;100412.55;1665244;86;21100;-64
2022/11/15 12:56:18;;;;;;;25.40;13.10;;;;;;;6.09;76.75;100405.92;1690006;85;21070;-64
2022/11/15 12:58:57;;;;;;;19.80;11.70;;;;;;;6.12;77.00;100399.64;1601207;89;21462;-62
2022/11/15 13:01:35;;;;;;;;;;;;;;;6.18;76.84;100392.67;1601163;90;21045;-64
2022/11/15 13:04:26;;;;;;;26.42;12.68;;;;;;;6.19;76.48;100399.30;1594349;90;20581;-63
2022/11/15 13:07:00;;;;;;;28.25;13.22;;;;;;;6.17;76.64;100392.33;1605140;89;21460;-62
2022/11/15 13:09:38;;;;;;;22.05;12.93;;;;;;;6.19;76.84;100390.29;1614117;89;21031;-63
2022/11/15 13:12:29;;;;;;;25.52;12.18;;;;;;;6.28;77.81;100387.40;1614111;89;21486;-64
2022/11/15 13:15:14;;;;;;;25.50;13.38;;;;;;;6.34;77.33;100382.63;1613859;89;21126;-62
2022/11/15 13:17:53;;;;;;;21.77;12.87;;;;;;;6.38;76.87;100379.57;1614208;89;21509;-62
2022/11/15 13:20:32;;;;;;;27.02;13.58;;;;;;;6.36;76.44;100377.02;1614027;89;21060;-62